LTBI/ESK METAR and TAF weather

Enter ICAO airport designator
Station Type Date Time Source
LTBI METAR 2019/10/22 16:50 UTC NOAA

LTBI 221650Z 28004KT 250V310 CAVOK 14/09 Q1021 NOSIG RMK RWY08 28006KT 250V320


Station Type Date Time Source
LTBI Decoded METAR 2019/10/22 16:50 UTC NOAA

Eskisehir, Turkey (LTBI) 39-47N 030-34E 785M
Oct 22, 2019 - 12:50 PM EDT / 2019.10.22 1650 UTC
Wind: from the W (280 degrees) at 5 MPH (4 KT) (direction variable):0
Visibility: greater than 7 mile(s):0
Temperature: 57 F (14 C)
Dew Point: 48 F (9 C)
Relative Humidity: 71%
Pressure (altimeter): 30.15 in. Hg (1021 hPa)
ob: LTBI 221650Z 28004KT 250V310 CAVOK 14/09 Q1021 NOSIG RMK RWY08 28006KT 250V320
cycle: 17

Station Type Date Time Source
LTBI TAF 2012/05/11 09:09 UTC NOAA

TAF LTBI 110740Z 1109/1121 VRB02KT 6000 -SHRA BKN030 BKN090
TEMPO 1112/1116 33015KT 4000 -TSRA FEW025CB BKN030

Example: see airport list